createdAt,value
2019-04-26T00:01:18.770Z,39.35
2019-04-26T00:03:46.958Z,41.81
2019-04-26T00:06:15.041Z,42.57
2019-04-26T00:08:44.755Z,38.76
2019-04-26T00:11:44.852Z,39.82
2019-04-26T00:14:37.992Z,37.61
2019-04-26T00:17:10.164Z,38.23
2019-04-26T00:19:38.723Z,38.52
2019-04-26T00:22:06.503Z,39.15
2019-04-26T00:24:34.164Z,41.12
2019-04-26T00:27:01.523Z,41.77
2019-04-26T00:29:28.923Z,37.56
2019-04-26T00:31:56.284Z,37.76
2019-04-26T00:34:23.731Z,41.68
2019-04-26T00:36:51.088Z,41.30
2019-04-26T00:39:18.448Z,40.38
2019-04-26T00:41:46.263Z,40.00
2019-04-26T00:44:14.806Z,41.41
2019-04-26T00:46:45.550Z,37.81
2019-04-26T00:49:14.067Z,39.83
2019-04-26T00:51:42.986Z,37.12
2019-04-26T00:54:11.063Z,37.70
2019-04-26T00:56:39.298Z,39.42
2019-04-26T00:59:08.621Z,40.79
2019-04-26T01:01:39.307Z,41.73
2019-04-26T01:04:06.761Z,40.47
2019-04-26T01:06:36.441Z,37.31
2019-04-26T01:09:05.308Z,36.88
2019-04-26T01:11:32.643Z,40.89
2019-04-26T01:13:59.961Z,37.58
2019-04-26T01:16:27.301Z,37.04
2019-04-26T01:18:54.774Z,37.26
2019-04-26T01:21:24.726Z,38.33
2019-04-26T01:23:54.070Z,39.60
2019-04-26T01:26:27.485Z,37.89
2019-04-26T01:29:04.502Z,37.83
2019-04-26T01:31:36.182Z,41.51
2019-04-26T01:34:03.682Z,37.54
2019-04-26T01:36:31.443Z,37.29
2019-04-26T01:39:05.367Z,39.09
2019-04-26T01:41:43.655Z,40.77
2019-04-26T01:44:17.332Z,36.59
2019-04-26T01:46:46.424Z,39.98
2019-04-26T01:49:15.130Z,42.72
2019-04-26T01:51:51.426Z,43.87
2019-04-26T01:54:23.081Z,43.92
2019-04-26T01:56:54.611Z,39.65
2019-04-26T01:59:22.692Z,40.72
2019-04-26T02:02:26.030Z,41.94
2019-04-26T02:04:55.628Z,41.25
2019-04-26T02:07:38.196Z,41.65
2019-04-26T02:10:10.062Z,42.58
2019-04-26T02:12:38.006Z,42.31
2019-04-26T02:15:05.949Z,41.87
2019-04-26T02:17:33.654Z,44.15
2019-04-26T02:20:01.263Z,38.98
2019-04-26T02:22:35.923Z,39.68
2019-04-26T02:25:03.527Z,38.98
2019-04-26T02:27:30.947Z,42.99
2019-04-26T02:29:59.315Z,45.76
2019-04-26T02:32:28.889Z,45.85
2019-04-26T02:34:56.672Z,44.37
2019-04-26T02:37:24.172Z,45.01
2019-04-26T02:39:52.530Z,40.36
2019-04-26T02:42:39.264Z,39.83
2019-04-26T02:46:11.375Z,41.43
2019-04-26T02:48:57.001Z,43.64
2019-04-26T02:51:32.362Z,43.53
2019-04-26T02:54:24.672Z,38.63
2019-04-26T02:56:53.861Z,37.09
2019-04-26T02:59:34.018Z,36.09
2019-04-26T03:02:03.789Z,36.47
2019-04-26T03:04:32.683Z,35.90
2019-04-26T03:07:07.298Z,35.89
2019-04-26T03:09:37.003Z,36.35
2019-04-26T03:12:08.924Z,47.49
2019-04-26T03:15:12.618Z,47.50
2019-04-26T03:17:39.767Z,48.93
2019-04-26T03:20:12.652Z,47.88
2019-04-26T03:23:23.512Z,49.68
2019-04-26T03:26:12.854Z,43.94
2019-04-26T03:28:53.055Z,40.30
2019-04-26T03:31:38.982Z,38.42
2019-04-26T03:34:29.051Z,39.67
2019-04-26T03:37:37.893Z,40.41
2019-04-26T03:40:25.003Z,43.06
2019-04-26T03:43:26.359Z,45.67
2019-04-26T03:46:09.341Z,40.09
2019-04-26T03:49:05.624Z,45.77
2019-04-26T03:52:02.423Z,44.69
2019-04-26T03:54:30.771Z,47.28
2019-04-26T03:57:17.291Z,47.56
2019-04-26T03:59:56.955Z,37.56
2019-04-26T04:02:45.694Z,38.91
2019-04-26T04:05:37.909Z,41.73
2019-04-26T04:08:09.865Z,49.19
2019-04-26T04:10:50.505Z,50.55
2019-04-26T04:13:44.462Z,53.34
2019-04-26T04:16:43.019Z,52.15
2019-04-26T04:19:54.983Z,50.67
2019-04-26T04:22:23.795Z,53.12
2019-04-26T04:24:54.432Z,53.93
2019-04-26T04:27:28.643Z,53.49
2019-04-26T04:30:33.224Z,53.34
2019-04-26T04:33:17.577Z,54.68
2019-04-26T04:35:49.298Z,54.58
2019-04-26T04:38:33.226Z,55.04
2019-04-26T04:41:29.228Z,54.36
2019-04-26T04:44:16.190Z,53.59
2019-04-26T04:47:42.624Z,54.39
2019-04-26T04:50:30.081Z,54.96
2019-04-26T04:53:24.723Z,54.84
2019-04-26T04:56:37.498Z,54.42
2019-04-26T04:59:07.996Z,54.67
2019-04-26T05:02:18.453Z,56.15
2019-04-26T05:05:40.289Z,55.27
2019-04-26T05:08:35.114Z,55.10
2019-04-26T05:11:12.426Z,56.91
2019-04-26T05:13:46.260Z,56.32
2019-04-26T05:16:57.889Z,55.45
2019-04-26T05:19:58.647Z,56.78
2019-04-26T05:23:15.438Z,56.59
2019-04-26T05:26:50.212Z,55.86
2019-04-26T05:29:50.750Z,56.04
2019-04-26T05:32:44.560Z,55.62
2019-04-26T05:35:49.009Z,54.93
2019-04-26T05:38:55.362Z,54.27
2019-04-26T05:42:01.357Z,54.41
2019-04-26T05:45:29.279Z,56.81
2019-04-26T05:48:26.921Z,53.87
2019-04-26T05:51:38.350Z,53.43
2019-04-26T05:54:20.674Z,55.44
2019-04-26T05:57:36.721Z,54.94
2019-04-26T06:00:26.082Z,55.83
2019-04-26T06:03:28.989Z,55.06
2019-04-26T06:06:21.729Z,54.35
2019-04-26T06:09:13.907Z,53.29
2019-04-26T06:11:54.764Z,53.09
2019-04-26T06:14:52.894Z,52.02
2019-04-26T06:17:57.291Z,52.06
2019-04-26T06:20:42.541Z,52.14
2019-04-26T06:23:38.341Z,54.51
2019-04-26T06:26:36.317Z,54.42
2019-04-26T06:29:09.601Z,54.01
2019-04-26T06:31:48.846Z,52.07
2019-04-26T06:34:27.923Z,51.07
2019-04-26T06:37:33.789Z,51.24
2019-04-26T06:40:09.239Z,50.67
2019-04-26T06:43:03.161Z,50.67
2019-04-26T06:46:28.131Z,52.01
2019-04-26T06:49:35.949Z,53.43
2019-04-26T06:52:08.607Z,51.73
2019-04-26T06:55:02.206Z,55.23
2019-04-26T06:58:15.869Z,54.65
2019-04-26T07:00:59.250Z,53.56
2019-04-26T07:04:20.564Z,53.70
2019-04-26T07:07:17.666Z,53.44
2019-04-26T07:10:06.496Z,52.99
2019-04-26T07:12:46.871Z,53.27
2019-04-26T07:15:44.940Z,53.41
2019-04-26T07:18:51.006Z,53.91
2019-04-26T07:21:44.230Z,54.09
2019-04-26T07:24:45.006Z,52.83
2019-04-26T07:27:21.759Z,54.43
2019-04-26T07:30:23.405Z,54.20
2019-04-26T07:33:41.625Z,52.78
2019-04-26T07:36:32.491Z,52.60
2019-04-26T07:39:27.347Z,52.19
2019-04-26T07:42:34.570Z,51.61
2019-04-26T07:45:45.087Z,53.29
2019-04-26T07:48:57.240Z,51.42
2019-04-26T07:52:14.235Z,51.64
2019-04-26T07:55:08.995Z,51.20
2019-04-26T07:58:22.409Z,51.16
2019-04-26T08:01:00.829Z,51.88
2019-04-26T08:03:46.291Z,53.38
2019-04-26T08:06:24.265Z,53.52
2019-04-26T08:09:01.185Z,54.79
2019-04-26T08:11:35.601Z,54.74
2019-04-26T08:14:17.105Z,55.81
2019-04-26T08:17:05.398Z,55.35
2019-04-26T08:19:40.769Z,55.08
2019-04-26T08:22:18.471Z,56.37
2019-04-26T08:24:40.239Z,57.83
2019-04-26T08:27:22.783Z,55.16
2019-04-26T08:29:45.691Z,55.13
2019-04-26T08:32:21.901Z,55.42
2019-04-26T08:35:02.259Z,55.31
2019-04-26T08:37:53.693Z,54.46
2019-04-26T08:40:30.643Z,53.34
2019-04-26T08:43:27.330Z,53.75
2019-04-26T08:46:15.876Z,55.72
2019-04-26T08:49:06.675Z,55.17
2019-04-26T08:51:35.820Z,54.61
2019-04-26T08:54:07.765Z,53.92
2019-04-26T08:56:39.453Z,53.23
2019-04-26T08:59:18.400Z,54.78
2019-04-26T09:02:15.933Z,53.27
2019-04-26T09:04:54.131Z,53.55
2019-04-26T09:07:28.082Z,53.76
2019-04-26T09:09:57.661Z,53.74
2019-04-26T09:12:27.582Z,53.38
2019-04-26T09:14:58.545Z,53.30
2019-04-26T09:17:27.843Z,54.41
2019-04-26T09:19:58.009Z,54.33
2019-04-26T09:22:49.609Z,54.63
2019-04-26T09:25:39.218Z,54.01
2019-04-26T09:28:13.080Z,53.94
2019-04-26T09:30:52.470Z,54.32
2019-04-26T09:33:37.847Z,54.96
2019-04-26T09:36:05.418Z,54.90
2019-04-26T09:38:33.009Z,54.72
2019-04-26T09:41:00.598Z,54.26
2019-04-26T09:43:37.930Z,54.36
2019-04-26T09:46:27.899Z,54.46
2019-04-26T09:49:17.394Z,55.44
2019-04-26T09:51:44.812Z,56.25
2019-04-26T09:54:12.259Z,54.37
2019-04-26T09:56:39.641Z,54.20
2019-04-26T09:59:07.036Z,54.36
2019-04-26T10:01:35.059Z,54.48
2019-04-26T10:04:02.458Z,54.63
2019-04-26T10:06:31.040Z,55.13
2019-04-26T10:08:58.588Z,55.85
2019-04-26T10:11:29.926Z,56.47
2019-04-26T10:14:02.295Z,54.98
2019-04-26T10:16:42.171Z,56.13
2019-04-26T10:19:11.327Z,56.64
2019-04-26T10:21:38.646Z,56.13
2019-04-26T10:24:08.281Z,56.99
2019-04-26T10:26:35.289Z,57.97
2019-04-26T10:29:02.661Z,57.58
2019-04-26T10:31:29.985Z,57.91
2019-04-26T10:33:57.340Z,57.66
2019-04-26T10:36:26.264Z,57.66
2019-04-26T10:38:54.518Z,57.51
2019-04-26T10:41:23.350Z,57.90
2019-04-26T10:43:50.810Z,59.08
2019-04-26T10:46:18.233Z,58.57
2019-04-26T10:48:49.658Z,58.99
2019-04-26T10:51:17.286Z,59.17
2019-04-26T10:53:56.792Z,59.11
2019-04-26T10:56:37.587Z,61.34
2019-04-26T10:59:22.791Z,65.20
2019-04-26T11:01:50.578Z,65.59
2019-04-26T11:04:17.963Z,64.64
2019-04-26T11:06:45.420Z,61.92
2019-04-26T11:09:12.882Z,64.51
2019-04-26T11:11:40.229Z,63.48
2019-04-26T11:14:07.655Z,62.93
2019-04-26T11:16:37.126Z,62.49
2019-04-26T11:19:04.514Z,61.72
2019-04-26T11:21:31.886Z,62.75
2019-04-26T11:23:59.222Z,60.81
2019-04-26T11:26:26.625Z,60.68
2019-04-26T11:28:55.780Z,60.24
2019-04-26T11:31:27.182Z,60.69
2019-04-26T11:34:04.430Z,60.13
2019-04-26T11:36:21.656Z,61.20
2019-04-26T11:38:49.143Z,60.82
2019-04-26T11:41:16.482Z,61.04
2019-04-26T11:43:43.814Z,64.23
2019-04-26T11:46:11.169Z,65.18
2019-04-26T11:48:38.507Z,67.44
2019-04-26T11:51:05.910Z,68.02
2019-04-26T11:53:33.595Z,67.97
2019-04-26T11:56:04.516Z,67.57
2019-04-26T11:58:30.602Z,68.74
2019-04-26T12:01:00.954Z,69.07
2019-04-26T12:03:28.260Z,69.03
2019-04-26T12:06:15.269Z,70.09
2019-04-26T12:08:55.112Z,67.48
2019-04-26T12:11:31.350Z,69.58
2019-04-26T12:13:55.267Z,69.17
2019-04-26T12:16:21.115Z,71.82
2019-04-26T12:18:48.512Z,72.09
2019-04-26T12:21:15.820Z,71.91
2019-04-26T12:23:43.164Z,69.64
2019-04-26T12:26:10.567Z,70.49
2019-04-26T12:28:39.917Z,70.54
2019-04-26T12:31:07.277Z,71.27
2019-04-26T12:33:34.672Z,70.32
2019-04-26T12:36:02.167Z,69.97
2019-04-26T12:38:30.102Z,68.61
2019-04-26T12:40:58.253Z,70.00
2019-04-26T12:43:26.150Z,66.26
2019-04-26T12:46:14.111Z,66.47
2019-04-26T12:48:41.052Z,65.54
2019-04-26T12:51:12.071Z,67.39
2019-04-26T12:53:40.624Z,67.79
2019-04-26T12:56:07.036Z,68.89
2019-04-26T12:58:34.482Z,70.30
2019-04-26T13:01:01.960Z,72.52
2019-04-26T13:03:30.415Z,73.65
2019-04-26T13:05:59.132Z,75.38
2019-04-26T13:08:26.761Z,78.10
2019-04-26T13:11:25.063Z,75.70
2019-04-26T13:14:03.218Z,78.97
2019-04-26T13:16:40.450Z,75.08
2019-04-26T13:19:07.908Z,83.63
2019-04-26T13:21:37.254Z,82.52
2019-04-26T13:24:06.207Z,81.42
2019-04-26T13:26:34.665Z,83.62
2019-04-26T13:29:03.083Z,81.07
2019-04-26T13:31:31.737Z,80.29
2019-04-26T13:34:03.032Z,77.97
2019-04-26T13:36:29.274Z,77.43
2019-04-26T13:38:58.020Z,75.50
2019-04-26T13:41:27.943Z,74.36
2019-04-26T13:43:57.194Z,77.95
2019-04-26T13:46:48.503Z,77.80
2019-04-26T13:49:31.776Z,78.44
2019-04-26T13:51:59.140Z,76.72
2019-04-26T13:54:26.507Z,79.20
2019-04-26T13:56:53.890Z,75.66
2019-04-26T13:59:21.354Z,77.58
2019-04-26T14:01:48.726Z,82.27
2019-04-26T14:04:16.104Z,78.84
2019-04-26T14:06:43.562Z,80.66
2019-04-26T14:09:12.717Z,77.73
2019-04-26T14:11:40.209Z,78.23
2019-04-26T14:14:07.522Z,78.13
2019-04-26T14:16:35.131Z,80.64
2019-04-26T14:19:02.720Z,80.78
2019-04-26T14:21:33.125Z,81.18
2019-04-26T14:24:04.897Z,81.83
2019-04-26T14:26:40.015Z,82.00
2019-04-26T14:29:07.161Z,81.51
2019-04-26T14:31:34.570Z,81.12
2019-04-26T14:34:05.528Z,82.24
2019-04-26T14:36:31.303Z,82.94
2019-04-26T14:39:05.607Z,84.48
2019-04-26T14:41:28.034Z,86.07
2019-04-26T14:43:56.786Z,84.84
2019-04-26T14:46:24.650Z,84.54
2019-04-26T14:49:01.443Z,82.56
2019-04-26T14:51:21.346Z,81.47
2019-04-26T14:53:48.797Z,82.22
2019-04-26T14:56:16.264Z,85.23
2019-04-26T14:58:43.599Z,85.01
2019-04-26T15:01:16.639Z,84.35
2019-04-26T15:03:51.380Z,84.99
2019-04-26T15:06:22.238Z,85.07
2019-04-26T15:08:50.581Z,83.93
2019-04-26T15:11:17.961Z,84.02
2019-04-26T15:13:45.388Z,85.94
2019-04-26T15:16:14.321Z,85.49
2019-04-26T15:18:42.629Z,83.74
2019-04-26T15:21:10.284Z,84.71
2019-04-26T15:23:37.602Z,82.71
2019-04-26T15:26:05.169Z,83.13
2019-04-26T15:28:33.149Z,83.24
2019-04-26T15:31:02.297Z,81.79
2019-04-26T15:33:29.867Z,80.54
2019-04-26T15:35:57.252Z,79.88
2019-04-26T15:38:24.894Z,82.70
2019-04-26T15:41:23.969Z,83.28
2019-04-26T15:44:29.725Z,79.92
2019-04-26T15:47:11.022Z,85.17
2019-04-26T15:50:11.063Z,86.53
2019-04-26T15:52:38.569Z,84.38
2019-04-26T15:55:06.241Z,79.44
2019-04-26T15:57:34.712Z,83.44
2019-04-26T16:00:04.161Z,85.85
2019-04-26T16:02:32.930Z,85.30
2019-04-26T16:05:00.289Z,83.90
2019-04-26T16:07:29.150Z,83.83
2019-04-26T16:09:57.588Z,85.75
2019-04-26T16:12:27.152Z,85.19
2019-04-26T16:14:54.559Z,85.19
2019-04-26T16:17:21.976Z,86.54
2019-04-26T16:19:50.662Z,83.95
2019-04-26T16:22:18.049Z,84.29
2019-04-26T16:24:45.496Z,83.58
2019-04-26T16:27:12.945Z,83.98
2019-04-26T16:29:59.512Z,83.67
2019-04-26T16:32:47.173Z,84.93
2019-04-26T16:35:12.857Z,83.98
2019-04-26T16:37:40.178Z,85.16
2019-04-26T16:40:12.416Z,85.00
2019-04-26T16:42:38.199Z,85.18
2019-04-26T16:45:07.896Z,86.62
2019-04-26T16:47:45.101Z,86.01
2019-04-26T16:50:05.668Z,86.91
2019-04-26T16:52:33.750Z,86.83
2019-04-26T16:55:04.183Z,87.84
2019-04-26T16:57:33.538Z,88.04
2019-04-26T17:00:04.219Z,84.28
2019-04-26T17:02:34.984Z,86.82
2019-04-26T17:05:04.555Z,85.04
2019-04-26T17:07:29.009Z,85.47
2019-04-26T17:09:59.398Z,86.49
2019-04-26T17:12:25.598Z,86.59
2019-04-26T17:14:54.292Z,86.44
2019-04-26T17:17:22.412Z,85.79
2019-04-26T17:19:49.996Z,85.33
2019-04-26T17:22:44.731Z,83.86
2019-04-26T17:25:27.103Z,84.26
2019-04-26T17:27:54.761Z,83.96
2019-04-26T17:30:24.239Z,84.36
2019-04-26T17:32:53.541Z,84.06
2019-04-26T17:35:20.969Z,82.47
2019-04-26T17:37:48.308Z,80.72
2019-04-26T17:40:15.728Z,84.20
2019-04-26T17:42:43.209Z,83.96
2019-04-26T17:45:10.934Z,85.09
2019-04-26T17:47:42.445Z,84.74
2019-04-26T17:50:11.023Z,83.11
2019-04-26T17:52:40.919Z,84.16
2019-04-26T17:55:11.919Z,81.93
2019-04-26T17:57:42.359Z,83.60
2019-04-26T18:00:13.380Z,83.94
2019-04-26T18:02:43.381Z,83.60
2019-04-26T18:05:08.280Z,84.49
2019-04-26T18:07:44.250Z,84.22
2019-04-26T18:10:10.420Z,83.48
2019-04-26T18:12:40.769Z,81.78
2019-04-26T18:15:10.321Z,82.96
2019-04-26T18:18:04.402Z,82.46
2019-04-26T18:20:49.832Z,85.16
2019-04-26T18:23:19.027Z,83.42
2019-04-26T18:25:46.568Z,82.71
2019-04-26T18:28:16.072Z,82.17
2019-04-26T18:30:46.660Z,84.04
2019-04-26T18:33:13.532Z,83.09
2019-04-26T18:35:43.472Z,81.86
2019-04-26T18:38:12.524Z,82.35
2019-04-26T18:40:58.905Z,82.91
2019-04-26T18:43:12.465Z,83.86
2019-04-26T18:45:44.466Z,84.28
2019-04-26T18:48:13.844Z,83.19
2019-04-26T18:50:45.715Z,83.86
2019-04-26T18:53:36.687Z,85.27
2019-04-26T18:56:03.394Z,85.60
2019-04-26T18:58:34.808Z,84.95
2019-04-26T19:01:05.160Z,84.64
2019-04-26T19:03:39.613Z,84.99
2019-04-26T19:06:10.022Z,85.03
2019-04-26T19:08:47.638Z,83.73
2019-04-26T19:11:11.823Z,84.85
2019-04-26T19:14:06.340Z,85.70
2019-04-26T19:16:40.486Z,84.44
2019-04-26T19:19:22.431Z,86.27
2019-04-26T19:21:46.990Z,83.70
2019-04-26T19:24:19.504Z,84.56
2019-04-26T19:26:49.823Z,85.73
2019-04-26T19:29:18.727Z,84.39
2019-04-26T19:31:46.796Z,85.90
2019-04-26T19:34:17.794Z,83.37
2019-04-26T19:36:45.660Z,85.76
2019-04-26T19:39:13.301Z,84.56
2019-04-26T19:41:42.014Z,84.15
2019-04-26T19:44:14.660Z,83.38
2019-04-26T19:47:03.247Z,84.05
2019-04-26T19:49:47.800Z,86.47
2019-04-26T19:52:42.520Z,85.60
2019-04-26T19:55:32.358Z,83.88
2019-04-26T19:58:20.092Z,87.97
2019-04-26T20:00:46.737Z,88.40
2019-04-26T20:03:16.619Z,86.46
2019-04-26T20:05:44.142Z,84.30
2019-04-26T20:08:12.678Z,85.53
2019-04-26T20:10:40.784Z,83.91
2019-04-26T20:13:15.252Z,86.39
2019-04-26T20:15:39.598Z,86.87
2019-04-26T20:18:07.220Z,86.90
2019-04-26T20:20:37.219Z,86.27
2019-04-26T20:23:07.765Z,86.70
2019-04-26T20:25:34.579Z,86.99
2019-04-26T20:28:05.663Z,87.93
2019-04-26T20:30:45.304Z,88.12
2019-04-26T20:33:14.139Z,88.84
2019-04-26T20:35:42.437Z,88.40
2019-04-26T20:38:11.740Z,88.01
2019-04-26T20:40:43.428Z,87.99
2019-04-26T20:43:20.978Z,87.08
2019-04-26T20:46:02.054Z,86.18
2019-04-26T20:48:11.243Z,85.35
2019-04-26T20:50:47.456Z,84.16
2019-04-26T20:53:15.102Z,81.80
2019-04-26T20:55:42.795Z,83.60
2019-04-26T20:58:11.787Z,83.15
2019-04-26T21:00:53.789Z,83.22
2019-04-26T21:03:22.742Z,84.70
2019-04-26T21:05:46.484Z,85.88
2019-04-26T21:08:13.141Z,83.86
2019-04-26T21:10:41.798Z,84.31
2019-04-26T21:13:09.831Z,82.38
2019-04-26T21:15:51.962Z,84.69
2019-04-26T21:18:08.305Z,84.75
2019-04-26T21:20:36.552Z,84.41
2019-04-26T21:23:04.213Z,84.52
2019-04-26T21:25:54.363Z,83.62
2019-04-26T21:28:42.131Z,83.88
2019-04-26T21:31:15.774Z,85.74
2019-04-26T21:33:47.205Z,87.20
2019-04-26T21:36:43.809Z,87.69
2019-04-26T21:39:39.432Z,88.15
2019-04-26T21:42:08.303Z,88.11
2019-04-26T21:44:35.778Z,90.15
2019-04-26T21:47:03.407Z,87.10
2019-04-26T21:49:32.733Z,86.67
2019-04-26T21:52:00.689Z,84.80
2019-04-26T21:54:28.044Z,88.09
2019-04-26T21:56:55.398Z,87.78
2019-04-26T21:59:24.355Z,87.05
2019-04-26T22:01:58.849Z,85.63
2019-04-26T22:04:22.779Z,88.32
2019-04-26T22:06:51.136Z,89.34
2019-04-26T22:09:55.976Z,89.39
2019-04-26T22:12:27.302Z,86.69
2019-04-26T22:15:03.506Z,88.95
2019-04-26T22:17:40.437Z,88.40
2019-04-26T22:20:34.269Z,88.32
2019-04-26T22:23:30.390Z,86.32
2019-04-26T22:26:00.102Z,85.40
2019-04-26T22:28:31.326Z,83.29
2019-04-26T22:30:59.481Z,85.25
2019-04-26T22:33:27.434Z,84.81
2019-04-26T22:35:58.486Z,84.22
2019-04-26T22:38:26.740Z,83.70
2019-04-26T22:40:56.138Z,85.14
2019-04-26T22:43:39.400Z,88.15
2019-04-26T22:46:47.234Z,88.52
2019-04-26T22:49:07.845Z,88.34
2019-04-26T22:51:37.222Z,86.34
2019-04-26T22:54:06.151Z,84.18
2019-04-26T22:56:37.175Z,85.67
2019-04-26T22:59:07.681Z,88.82
2019-04-26T23:01:33.015Z,89.54
2019-04-26T23:04:03.337Z,89.25
2019-04-26T23:06:30.947Z,89.04
2019-04-26T23:08:58.469Z,89.88
2019-04-26T23:11:25.937Z,88.21
2019-04-26T23:14:19.139Z,85.52
2019-04-26T23:17:08.348Z,85.05
2019-04-26T23:19:57.358Z,84.08
2019-04-26T23:22:30.805Z,85.54
2019-04-26T23:24:57.907Z,84.15
2019-04-26T23:27:23.719Z,84.62
2019-04-26T23:29:56.776Z,85.43
2019-04-26T23:32:20.622Z,84.06
2019-04-26T23:34:47.964Z,84.02
2019-04-26T23:37:15.342Z,85.41
2019-04-26T23:39:49.261Z,86.09
2019-04-26T23:42:12.295Z,86.74
2019-04-26T23:44:41.221Z,87.27
2019-04-26T23:47:20.916Z,89.79
2019-04-26T23:49:37.859Z,89.11
2019-04-26T23:52:05.185Z,87.91
2019-04-26T23:54:35.877Z,87.71
2019-04-26T23:57:02.892Z,86.04
2019-04-26T23:59:30.328Z,83.88
